Johnsburg, Minnesota
Current Conditions -  °F | °C
As of 1:36 AM on Wednesday 22 Oct 2014 (Local Time) from KAUM Reporting Station
Clear Clear  
Wind Chill: 38°   Ceiling: Unl
Heat Index: 43°   Visibility: 10mi
Dew Point: 37°   Wind: 8mph
Humidity: 81%   Direction: 140°SE
Pressure: 30.19"   Gusts: NA
Location:  43.5433°N, 92.7489°W
Report Text: KAUM 220636Z AUTO 14007KT 10SM CLR 06/03 A3019 RMK AO2
Loading
Personal Weather Stations






























Interactive Weather Map
Tropical Storm Tracking
New forecast layout! Learn more

10-Day Weather Forecast

Advertisements
Track Severe Weather on mobile